createdAt,value
2023-01-20T00:01:49.046Z,38.15
2023-01-20T00:04:20.542Z,34.80
2023-01-20T00:06:49.081Z,39.83
2023-01-20T00:09:18.991Z,41.63
2023-01-20T00:11:47.515Z,41.80
2023-01-20T00:14:16.414Z,43.05
2023-01-20T00:16:53.604Z,41.00
2023-01-20T00:19:22.151Z,42.25
2023-01-20T00:21:50.679Z,47.90
2023-01-20T00:24:24.188Z,42.70
2023-01-20T00:26:52.604Z,51.72
2023-01-20T00:29:21.183Z,53.30
2023-01-20T00:31:49.492Z,51.25
2023-01-20T00:34:18.207Z,52.03
2023-01-20T00:36:46.473Z,52.28
2023-01-20T00:39:15.069Z,44.13
2023-01-20T00:41:43.375Z,52.97
2023-01-20T00:44:24.143Z,42.28
2023-01-20T00:46:52.428Z,48.10
2023-01-20T00:49:21.110Z,49.40
2023-01-20T00:51:49.379Z,52.95
2023-01-20T00:54:18.054Z,46.40
2023-01-20T00:56:46.307Z,53.05
2023-01-20T00:59:14.902Z,56.13
2023-01-20T01:01:43.331Z,60.13
2023-01-20T01:04:11.922Z,55.50
2023-01-20T01:06:41.175Z,57.85
2023-01-20T01:09:10.145Z,54.30
2023-01-20T01:11:38.505Z,52.13
2023-01-20T01:14:07.414Z,51.55
2023-01-20T01:16:36.364Z,52.10
2023-01-20T01:19:05.080Z,54.10
2023-01-20T01:21:33.357Z,58.03
2023-01-20T01:24:01.916Z,56.95
2023-01-20T01:26:30.308Z,52.00
2023-01-20T01:28:59.292Z,52.65
2023-01-20T01:31:27.657Z,48.90
2023-01-20T01:33:56.324Z,48.67
2023-01-20T01:36:24.695Z,58.72
2023-01-20T01:38:57.693Z,53.22
2023-01-20T01:41:27.691Z,61.08
2023-01-20T01:44:12.374Z,55.70
2023-01-20T01:46:42.191Z,55.58
2023-01-20T01:49:28.856Z,53.35
2023-01-20T01:52:03.040Z,49.97
2023-01-20T01:54:35.234Z,53.15
2023-01-20T01:57:05.497Z,46.03
2023-01-20T01:59:35.305Z,47.05
2023-01-20T02:02:04.474Z,45.03
2023-01-20T02:04:35.191Z,51.78
2023-01-20T02:07:12.021Z,53.03
2023-01-20T02:09:40.638Z,48.00
2023-01-20T02:12:13.918Z,42.00
2023-01-20T02:15:09.513Z,43.58
2023-01-20T02:18:33.027Z,47.53
2023-01-20T02:21:38.312Z,43.83
2023-01-20T02:24:16.060Z,44.88
2023-01-20T02:26:53.943Z,38.92
2023-01-20T02:29:40.802Z,38.75
2023-01-20T02:32:21.021Z,46.80
2023-01-20T02:35:08.452Z,42.47
2023-01-20T02:38:04.810Z,42.75
2023-01-20T02:40:50.358Z,42.65
2023-01-20T02:43:46.972Z,35.92
2023-01-20T02:47:10.761Z,43.15
2023-01-20T02:49:56.320Z,41.53
2023-01-20T02:52:29.260Z,50.60
2023-01-20T02:55:02.073Z,46.70
2023-01-20T02:57:35.979Z,48.13
2023-01-20T03:00:12.533Z,48.38
2023-01-20T03:02:44.433Z,51.42
2023-01-20T03:05:18.905Z,52.53
2023-01-20T03:07:49.775Z,47.13
2023-01-20T03:10:22.962Z,46.45
2023-01-20T03:12:57.379Z,44.47
2023-01-20T03:15:35.715Z,43.90
2023-01-20T03:18:04.034Z,40.83
2023-01-20T03:20:32.618Z,43.20
2023-01-20T03:23:00.896Z,40.35
2023-01-20T03:25:29.623Z,43.38
2023-01-20T03:27:57.998Z,43.88
2023-01-20T03:30:26.865Z,43.95
2023-01-20T03:32:55.373Z,44.50
2023-01-20T03:35:24.614Z,48.25
2023-01-20T03:37:54.591Z,48.92
2023-01-20T03:40:28.574Z,48.25
2023-01-20T03:43:06.511Z,38.55
2023-01-20T03:45:43.147Z,44.47
2023-01-20T03:48:21.377Z,50.35
2023-01-20T03:51:27.159Z,43.75
2023-01-20T03:54:02.021Z,47.80
2023-01-20T03:56:38.395Z,51.45
2023-01-20T03:59:09.495Z,49.83
2023-01-20T04:01:41.988Z,47.67
2023-01-20T04:04:15.510Z,44.03
2023-01-20T04:06:45.772Z,47.10
2023-01-20T04:09:26.429Z,47.97
2023-01-20T04:11:56.474Z,51.53
2023-01-20T04:14:26.388Z,42.75
2023-01-20T04:16:59.434Z,41.47
2023-01-20T04:19:31.984Z,45.05
2023-01-20T04:22:28.858Z,46.60
2023-01-20T04:25:08.502Z,49.13
2023-01-20T04:27:39.291Z,44.70
2023-01-20T04:30:08.437Z,42.13
2023-01-20T04:32:36.974Z,45.95
2023-01-20T04:35:07.060Z,44.05
2023-01-20T04:37:38.222Z,44.53
2023-01-20T04:40:07.151Z,44.17
2023-01-20T04:42:35.886Z,44.10
2023-01-20T04:45:29.200Z,45.80
2023-01-20T04:47:57.844Z,46.60
2023-01-20T04:50:26.269Z,43.35
2023-01-20T04:52:55.937Z,43.10
2023-01-20T04:55:26.511Z,44.78
2023-01-20T04:57:55.101Z,44.25
2023-01-20T05:00:23.553Z,44.15
2023-01-20T05:02:52.309Z,44.25
2023-01-20T05:05:20.801Z,37.40
2023-01-20T05:07:53.534Z,45.55
2023-01-20T05:10:22.107Z,40.38
2023-01-20T05:12:50.697Z,45.92
2023-01-20T05:15:19.089Z,46.08
2023-01-20T05:17:47.653Z,47.42
2023-01-20T05:20:16.221Z,48.05
2023-01-20T05:22:45.010Z,45.55
2023-01-20T05:25:13.577Z,47.35
2023-01-20T05:27:45.163Z,50.30
2023-01-20T05:30:13.792Z,51.78
2023-01-20T05:32:42.622Z,49.95
2023-01-20T05:35:10.901Z,51.75
2023-01-20T05:37:39.448Z,52.65
2023-01-20T05:40:08.730Z,47.05
2023-01-20T05:42:37.286Z,53.22
2023-01-20T05:45:06.826Z,53.63
2023-01-20T05:47:35.457Z,51.85
2023-01-20T05:50:05.044Z,46.90
2023-01-20T05:52:33.685Z,53.50
2023-01-20T05:55:02.080Z,49.20
2023-01-20T05:57:30.864Z,51.08
2023-01-20T05:59:59.542Z,54.78
2023-01-20T06:02:31.592Z,52.42
2023-01-20T06:07:32.240Z,54.03
2023-01-20T06:10:00.597Z,54.47
2023-01-20T06:12:29.349Z,51.00
2023-01-20T06:14:57.792Z,48.25
2023-01-20T06:17:32.167Z,45.38
2023-01-20T06:20:01.376Z,50.50
2023-01-20T06:22:30.822Z,47.25
2023-01-20T06:24:59.169Z,50.63
2023-01-20T06:27:28.208Z,52.65
2023-01-20T06:29:56.549Z,50.00
2023-01-20T06:32:25.460Z,47.53
2023-01-20T06:34:53.854Z,45.17
2023-01-20T06:37:24.793Z,50.70
2023-01-20T06:39:53.161Z,46.22
2023-01-20T06:42:21.796Z,52.42
2023-01-20T06:44:50.283Z,48.78
2023-01-20T06:47:18.955Z,47.88
2023-01-20T06:49:47.430Z,50.80
2023-01-20T06:52:16.215Z,48.70
2023-01-20T06:54:44.737Z,54.03
2023-01-20T06:57:13.445Z,57.15
2023-01-20T06:59:41.774Z,49.05
2023-01-20T07:02:13.618Z,54.28
2023-01-20T07:04:42.747Z,54.92
2023-01-20T07:07:12.948Z,56.88
2023-01-20T07:09:41.261Z,55.40
2023-01-20T07:12:09.930Z,60.95
2023-01-20T07:14:38.153Z,56.33
2023-01-20T07:17:11.967Z,52.65
2023-01-20T07:19:40.371Z,53.13
2023-01-20T07:22:09.305Z,50.33
2023-01-20T07:24:37.695Z,55.22
2023-01-20T07:27:06.320Z,51.70
2023-01-20T07:29:34.864Z,55.67
2023-01-20T07:32:03.993Z,54.75
2023-01-20T07:34:32.371Z,78.63
2023-01-20T07:37:03.743Z,110.60
2023-01-20T07:39:32.105Z,72.20
2023-01-20T07:42:00.679Z,57.58
2023-01-20T07:44:28.957Z,61.42
2023-01-20T07:46:58.824Z,62.28
2023-01-20T07:49:27.405Z,65.60
2023-01-20T07:51:56.038Z,52.30
2023-01-20T07:54:24.263Z,52.72
2023-01-20T07:56:53.100Z,58.70
2023-01-20T07:59:21.439Z,48.08
2023-01-20T08:01:50.017Z,45.60
2023-01-20T08:04:18.579Z,47.08
2023-01-20T08:06:48.431Z,48.22
2023-01-20T08:09:16.771Z,49.33
2023-01-20T08:11:45.610Z,46.25
2023-01-20T08:14:14.123Z,48.28
2023-01-20T08:16:42.896Z,47.08
2023-01-20T08:19:11.392Z,48.38
2023-01-20T08:21:40.061Z,48.60
2023-01-20T08:24:10.976Z,48.95
2023-01-20T08:26:39.591Z,49.30
2023-01-20T08:29:10.393Z,70.15
2023-01-20T08:31:39.451Z,69.47
2023-01-20T08:34:08.092Z,65.88
2023-01-20T08:36:39.084Z,52.78
2023-01-20T08:39:10.850Z,48.25
2023-01-20T08:41:41.859Z,50.67
2023-01-20T08:44:11.520Z,54.25
2023-01-20T08:46:41.992Z,51.17
2023-01-20T08:49:14.853Z,53.67
2023-01-20T08:51:45.186Z,53.10
2023-01-20T08:54:14.805Z,56.08
2023-01-20T08:56:43.508Z,52.33
2023-01-20T08:59:12.205Z,52.00
2023-01-20T09:01:42.291Z,51.08
2023-01-20T09:04:11.205Z,58.50
2023-01-20T09:06:46.121Z,220.23
2023-01-20T09:09:16.139Z,128.07
2023-01-20T09:11:50.859Z,64.72
2023-01-20T09:14:24.524Z,73.32
2023-01-20T09:16:53.646Z,52.65
2023-01-20T09:19:22.186Z,49.08
2023-01-20T09:21:51.046Z,79.07
2023-01-20T09:24:19.326Z,46.03
2023-01-20T09:26:49.145Z,45.67
2023-01-20T09:29:19.479Z,47.35
2023-01-20T09:31:53.523Z,45.05
2023-01-20T09:34:22.012Z,43.00
2023-01-20T09:36:57.281Z,44.10
2023-01-20T09:39:44.013Z,43.65
2023-01-20T09:43:08.766Z,41.22
2023-01-20T09:45:45.513Z,42.58
2023-01-20T09:49:06.670Z,42.35
2023-01-20T09:52:04.590Z,43.40
2023-01-20T09:54:42.096Z,41.33
2023-01-20T09:57:13.304Z,44.83
2023-01-20T09:59:55.820Z,37.85
2023-01-20T10:02:30.407Z,47.85
2023-01-20T10:05:24.733Z,40.60
2023-01-20T10:07:58.349Z,40.00
2023-01-20T10:10:33.236Z,41.60
2023-01-20T10:13:16.452Z,52.30
2023-01-20T10:15:53.571Z,53.75
2023-01-20T10:18:30.031Z,56.85
2023-01-20T10:21:15.479Z,45.67
2023-01-20T10:23:54.092Z,38.22
2023-01-20T10:26:52.473Z,38.92
2023-01-20T10:29:32.469Z,44.33
2023-01-20T10:32:02.878Z,43.28
2023-01-20T10:34:40.853Z,51.75
2023-01-20T10:37:11.279Z,47.65
2023-01-20T10:39:57.981Z,43.83
2023-01-20T10:42:28.778Z,44.85
2023-01-20T10:44:58.735Z,57.58
2023-01-20T10:48:02.682Z,54.22
2023-01-20T10:51:05.531Z,42.78
2023-01-20T10:53:55.889Z,42.97
2023-01-20T10:56:36.352Z,45.47
2023-01-20T10:59:15.772Z,36.25
2023-01-20T11:02:06.238Z,36.00
2023-01-20T11:04:41.226Z,31.77
2023-01-20T11:07:16.432Z,33.67
2023-01-20T11:09:47.742Z,38.10
2023-01-20T11:12:26.806Z,35.22
2023-01-20T11:14:59.850Z,39.05
2023-01-20T11:17:31.247Z,31.95
2023-01-20T11:20:08.746Z,32.60
2023-01-20T11:22:39.416Z,32.90
2023-01-20T11:25:26.793Z,35.97
2023-01-20T11:27:58.319Z,34.13
2023-01-20T11:30:30.983Z,32.15
2023-01-20T11:35:41.515Z,33.83
2023-01-20T11:38:26.448Z,32.67
2023-01-20T11:40:57.483Z,35.58
2023-01-20T11:43:31.274Z,32.80
2023-01-20T11:46:22.908Z,34.65
2023-01-20T11:49:12.504Z,35.85
2023-01-20T11:51:53.657Z,32.67
2023-01-20T11:54:25.848Z,35.10
2023-01-20T11:56:59.596Z,41.15
2023-01-20T11:59:35.170Z,32.75
2023-01-20T12:02:09.850Z,31.83
2023-01-20T12:04:59.786Z,32.90
2023-01-20T12:07:47.569Z,36.90
2023-01-20T12:10:38.201Z,34.58
2023-01-20T12:13:18.021Z,32.95
2023-01-20T12:15:54.809Z,35.60
2023-01-20T12:18:35.334Z,35.03
2023-01-20T12:21:19.740Z,34.25
2023-01-20T12:23:57.140Z,35.08
2023-01-20T12:26:29.036Z,33.80
2023-01-20T12:29:23.791Z,37.05
2023-01-20T12:31:54.565Z,33.88
2023-01-20T12:34:32.686Z,35.38
2023-01-20T12:37:06.964Z,37.47
2023-01-20T12:39:53.525Z,35.15
2023-01-20T12:42:46.702Z,31.27
2023-01-20T12:45:49.553Z,41.08
2023-01-20T12:52:04.356Z,41.85
2023-01-20T12:54:48.352Z,34.30
2023-01-20T12:57:23.840Z,40.65
2023-01-20T13:00:15.386Z,37.40
2023-01-20T13:03:02.852Z,35.88
2023-01-20T13:06:01.301Z,34.88
2023-01-20T13:08:50.657Z,34.38
2023-01-20T13:11:48.504Z,34.17
2023-01-20T13:14:43.221Z,38.75
2023-01-20T13:17:39.075Z,39.55
2023-01-20T13:20:22.097Z,36.65
2023-01-20T13:22:52.082Z,41.30
2023-01-20T13:25:22.267Z,47.17
2023-01-20T13:27:54.458Z,43.70
2023-01-20T13:30:47.920Z,41.30
2023-01-20T13:33:42.229Z,40.47
2023-01-20T13:36:20.150Z,38.42
2023-01-20T13:39:02.975Z,41.20
2023-01-20T13:41:51.522Z,36.17
2023-01-20T13:44:37.052Z,36.00
2023-01-20T13:47:10.805Z,36.90
2023-01-20T13:49:42.185Z,36.85
2023-01-20T13:52:13.568Z,38.05
2023-01-20T13:54:46.559Z,41.20
2023-01-20T13:57:28.106Z,40.83
2023-01-20T13:59:56.935Z,40.35
2023-01-20T14:02:29.161Z,38.17
2023-01-20T14:04:58.953Z,39.92
2023-01-20T14:07:33.208Z,39.80
2023-01-20T14:14:59.070Z,40.00
2023-01-20T14:17:28.176Z,41.55
2023-01-20T14:19:56.554Z,38.58
2023-01-20T14:22:51.294Z,37.63
2023-01-20T14:25:26.857Z,43.60
2023-01-20T14:27:56.580Z,42.17
2023-01-20T14:30:30.205Z,36.50
2023-01-20T14:33:08.624Z,38.67
2023-01-20T14:35:37.067Z,39.67
2023-01-20T14:38:17.623Z,40.50
2023-01-20T14:40:51.984Z,39.60
2023-01-20T14:43:27.162Z,40.40
2023-01-20T14:45:55.906Z,40.20
2023-01-20T14:48:34.379Z,39.50
2023-01-20T14:51:20.732Z,42.47
2023-01-20T14:54:49.700Z,41.63
2023-01-20T14:57:31.209Z,47.08
2023-01-20T15:00:24.814Z,48.13
2023-01-20T15:03:14.348Z,66.32
2023-01-20T15:05:54.055Z,50.67
2023-01-20T15:08:32.829Z,51.22
2023-01-20T15:11:40.325Z,50.03
2023-01-20T15:14:13.241Z,54.38
2023-01-20T15:16:49.479Z,49.38
2023-01-20T15:19:35.430Z,47.95
2023-01-20T15:22:44.924Z,57.25
2023-01-20T15:25:17.038Z,60.58
2023-01-20T15:27:56.448Z,65.05
2023-01-20T15:30:34.092Z,64.15
2023-01-20T15:33:14.872Z,64.53
2023-01-20T15:36:17.486Z,62.97
2023-01-20T15:38:46.302Z,77.32
2023-01-20T15:41:18.379Z,84.55
2023-01-20T15:43:55.248Z,71.63
2023-01-20T15:46:25.256Z,66.05
2023-01-20T15:48:54.185Z,71.15
2023-01-20T15:51:24.401Z,80.68
2023-01-20T15:54:18.373Z,76.32
2023-01-20T15:56:57.082Z,72.65
2023-01-20T16:00:07.738Z,82.15
2023-01-20T16:03:12.654Z,88.45
2023-01-20T16:05:44.358Z,105.97
2023-01-20T16:08:27.985Z,114.50
2023-01-20T16:11:20.524Z,92.88
2023-01-20T16:13:58.101Z,96.25
2023-01-20T16:16:30.044Z,88.32
2023-01-20T16:19:24.162Z,93.32
2023-01-20T16:22:19.173Z,90.85
2023-01-20T16:24:49.292Z,91.13
2023-01-20T16:27:39.719Z,86.18
2023-01-20T16:30:13.691Z,97.70
2023-01-20T16:32:46.223Z,99.95
2023-01-20T16:38:40.634Z,70.03
2023-01-20T16:41:23.957Z,83.13
2023-01-20T16:43:55.719Z,78.90
2023-01-20T16:46:35.627Z,74.00
2023-01-20T16:49:07.927Z,72.55
2023-01-20T16:53:12.113Z,82.80
2023-01-20T16:59:16.049Z,71.60
2023-01-20T17:09:40.413Z,67.35
2023-01-20T17:14:35.976Z,77.55
2023-01-20T17:20:21.632Z,66.80
2023-01-20T17:23:05.598Z,74.15
2023-01-20T17:25:37.767Z,77.53
2023-01-20T17:28:08.979Z,76.35
2023-01-20T17:31:11.844Z,84.40
2023-01-20T17:34:07.960Z,83.80
2023-01-20T17:37:08.215Z,71.93
2023-01-20T17:39:39.517Z,70.22
2023-01-20T17:42:35.194Z,89.63
2023-01-20T17:45:06.042Z,81.13
2023-01-20T17:47:59.590Z,72.45
2023-01-20T17:50:32.258Z,78.20
2023-01-20T17:53:33.249Z,69.30
2023-01-20T17:56:12.195Z,67.43
2023-01-20T17:58:43.655Z,75.65
2023-01-20T18:01:18.540Z,69.93
2023-01-20T18:04:21.652Z,70.28
2023-01-20T18:06:52.921Z,69.57
2023-01-20T18:09:21.238Z,72.18
2023-01-20T18:11:50.044Z,76.25
2023-01-20T18:14:19.583Z,69.40
2023-01-20T18:17:01.547Z,78.40
2023-01-20T18:19:30.499Z,85.22
2023-01-20T18:22:05.896Z,87.63
2023-01-20T18:24:52.024Z,72.43
2023-01-20T18:27:58.642Z,72.72
2023-01-20T18:39:27.540Z,76.20
2023-01-20T18:42:03.786Z,90.15
2023-01-20T18:44:35.443Z,84.82
2023-01-20T18:47:03.805Z,77.68
2023-01-20T18:49:46.895Z,73.53
2023-01-20T18:52:29.962Z,69.63
2023-01-20T18:55:01.087Z,72.43
2023-01-20T18:57:34.791Z,71.15
2023-01-20T19:00:04.913Z,69.63
2023-01-20T19:02:34.319Z,68.45
2023-01-20T19:05:04.477Z,71.25
2023-01-20T19:07:36.559Z,80.85
2023-01-20T19:10:07.178Z,73.22
2023-01-20T19:12:35.629Z,75.05
2023-01-20T19:19:19.912Z,69.88
2023-01-20T19:21:53.869Z,67.63
2023-01-20T19:24:22.209Z,73.20
2023-01-20T19:27:01.583Z,72.10
2023-01-20T19:29:51.237Z,66.90
2023-01-20T19:32:22.557Z,72.80
2023-01-20T19:34:50.875Z,76.25
2023-01-20T19:37:23.463Z,85.15
2023-01-20T19:39:51.760Z,130.07
2023-01-20T19:42:20.370Z,75.43
2023-01-20T19:44:48.667Z,84.22
2023-01-20T19:47:17.313Z,87.82
2023-01-20T19:49:45.607Z,75.30
2023-01-20T19:52:17.510Z,89.00
2023-01-20T19:54:50.345Z,79.50
2023-01-20T19:57:20.312Z,76.68
2023-01-20T19:59:48.946Z,78.25
2023-01-20T20:02:17.841Z,72.65
2023-01-20T20:05:01.114Z,66.13
2023-01-20T20:08:03.475Z,64.43
2023-01-20T20:10:42.395Z,60.15
2023-01-20T20:13:11.095Z,58.00
2023-01-20T20:15:39.440Z,59.80
2023-01-20T20:18:08.057Z,63.10
2023-01-20T20:20:36.647Z,64.35
2023-01-20T20:23:05.268Z,62.13
2023-01-20T20:25:34.305Z,59.30
2023-01-20T20:28:06.271Z,65.32
2023-01-20T20:30:37.075Z,67.85
2023-01-20T20:33:05.881Z,63.88
2023-01-20T20:35:41.627Z,58.72
2023-01-20T20:38:13.014Z,60.75
2023-01-20T20:40:41.882Z,64.70
2023-01-20T20:43:10.727Z,68.03
2023-01-20T20:45:39.199Z,61.80
2023-01-20T20:48:10.024Z,62.88
2023-01-20T20:50:43.623Z,66.22
2023-01-20T20:53:18.908Z,70.22
2023-01-20T20:56:05.514Z,65.10
2023-01-20T20:58:36.662Z,61.20
2023-01-20T21:01:07.244Z,65.45
2023-01-20T21:04:07.270Z,64.85
2023-01-20T21:06:35.826Z,77.00
2023-01-20T21:09:13.247Z,65.35
2023-01-20T21:11:46.357Z,69.18
2023-01-20T21:14:24.613Z,70.00
2023-01-20T21:16:58.881Z,64.22
2023-01-20T21:19:27.779Z,60.20
2023-01-20T21:21:57.531Z,61.38
2023-01-20T21:24:37.598Z,62.35
2023-01-20T21:27:19.286Z,59.95
2023-01-20T21:29:48.225Z,60.08
2023-01-20T21:32:18.912Z,54.40
2023-01-20T21:34:47.650Z,59.50
2023-01-20T21:37:21.153Z,55.88
2023-01-20T21:39:51.745Z,59.92
2023-01-20T21:42:23.348Z,57.47
2023-01-20T21:44:52.299Z,55.72
2023-01-20T21:47:20.777Z,53.88
2023-01-20T21:50:07.906Z,57.67
2023-01-20T21:52:42.230Z,49.38
2023-01-20T21:55:20.219Z,56.97
2023-01-20T21:57:51.274Z,55.15
2023-01-20T22:00:20.610Z,50.03
2023-01-20T22:02:49.125Z,55.47
2023-01-20T22:05:18.572Z,52.65
2023-01-20T22:07:48.162Z,54.95
2023-01-20T22:10:17.278Z,52.15
2023-01-20T22:12:45.840Z,52.67
2023-01-20T22:15:14.544Z,52.25
2023-01-20T22:17:42.983Z,50.03
2023-01-20T22:20:11.773Z,54.10
2023-01-20T22:22:40.256Z,48.05
2023-01-20T22:25:12.707Z,52.33
2023-01-20T22:30:10.005Z,48.83
2023-01-20T22:32:38.512Z,54.78
2023-01-20T22:35:07.363Z,50.35
2023-01-20T22:37:35.609Z,51.92
2023-01-20T22:40:05.666Z,54.53
2023-01-20T22:42:34.656Z,42.97
2023-01-20T22:45:03.932Z,47.35
2023-01-20T22:47:32.302Z,46.13
2023-01-20T22:50:00.827Z,47.15
2023-01-20T22:52:29.061Z,54.03
2023-01-20T22:54:57.814Z,46.08
2023-01-20T22:57:26.331Z,44.65
2023-01-20T22:59:54.953Z,47.72
2023-01-20T23:02:23.259Z,47.92
2023-01-20T23:04:52.552Z,48.47
2023-01-20T23:07:20.774Z,51.13
2023-01-20T23:09:50.199Z,40.40
2023-01-20T23:12:18.732Z,47.47
2023-01-20T23:14:59.126Z,42.72
2023-01-20T23:17:30.128Z,46.47
2023-01-20T23:19:58.777Z,47.05
2023-01-20T23:22:27.162Z,44.58
2023-01-20T23:24:56.098Z,42.22
2023-01-20T23:27:24.500Z,46.67
2023-01-20T23:29:55.879Z,42.22
2023-01-20T23:32:24.372Z,40.65
2023-01-20T23:34:52.495Z,43.97
2023-01-20T23:37:24.156Z,42.10
2023-01-20T23:39:59.901Z,40.13
2023-01-20T23:42:28.564Z,35.95
2023-01-20T23:44:56.970Z,40.45
2023-01-20T23:47:25.536Z,39.65
2023-01-20T23:49:54.007Z,39.70
2023-01-20T23:52:25.063Z,34.72
2023-01-20T23:54:53.631Z,40.90
2023-01-20T23:57:22.316Z,32.05
2023-01-20T23:59:50.695Z,53.65
